^^
Datos históricos de la estación: Murcia-Puente Tocinos
Diario Informe para Enero 19, 2019 Unidades:  Ingés    Métrico   Ambas
Diario Semanal Mensual Anual
  Máxima: Mínima: Promedio:
Temperatura: 61.5 °F 45.9 °F 52.7 °F
Punto de rocio: 45 °F 33.1 °F 37 °F
Humedad: 74.2% 35% 56%
Velocidad viento: 7.6mph 0mph 4mph
Racha viento: 14mph - -
Viento- - SSO
Presión: 30 in 29.9 in -
Precipitación: 0 in    
 
 
Tabla de datos para Enero 19, 2019
Hora Temperatura Punto de rocio Presión Viento Velocidad viento Racha viento Humedad Intensidad lluvia(por hora) Nubes
00:04 52.2 °F 42.3 °F 30 in SO 2.4 mph 5 mph 69% 0 in
00:09 52.2 °F 42.1 °F 30 in SO 2.8 mph 5 mph 68.5% 0 in
00:14 52.2 °F 41.9 °F 30 in SO 3.1 mph 5 mph 68% 0 in
00:19 52.2 °F 42.3 °F 30 in SO 3 mph 5 mph 69% 0 in
00:24 52.2 °F 42.3 °F 30 in SO 2.9 mph 5 mph 69% 0 in
00:29 52.2 °F 42.1 °F 30 in SO 3 mph 5.2 mph 68.4% 0 in
00:34 52.2 °F 41.9 °F 30 in SSO 3.1 mph 6 mph 68.1% 0 in
00:39 52 °F 41.7 °F 30 in SSO 3.1 mph 6 mph 68% 0 in
00:44 52 °F 41.7 °F 30 in SSO 3.1 mph 6.2 mph 68% 0 in
00:49 51.8 °F 41.5 °F 30 in Sur 3.4 mph 7.4 mph 68% 0 in
00:54 51.4 °F 41.4 °F 30 in Sur 3.6 mph 7 mph 68% 0 in
00:59 51.3 °F 41 °F 30 in Sur 3.9 mph 6.2 mph 68% 0 in
01:04 50.9 °F 41 °F 30 in SSO 4 mph 6 mph 68.7% 0 in
01:09 50.7 °F 40.6 °F 30 in SSO 4 mph 6.2 mph 68.4% 0 in
01:14 50.5 °F 40.5 °F 30 in SSO 4 mph 6 mph 68% 0 in
01:19 50.5 °F 40.5 °F 30 in SO 3.4 mph 5.2 mph 67.9% 0 in
01:24 50.5 °F 40.3 °F 30 in SO 2.9 mph 5.9 mph 67.7% 0 in
01:29 50.5 °F 39.9 °F 30 in SSO 3 mph 6 mph 67% 0 in
01:34 50.5 °F 40.1 °F 30 in Sur 3.1 mph 6 mph 67.6% 0 in
01:39 50.5 °F 39.7 °F 30 in SO 3.4 mph 7.4 mph 66.4% 0 in
01:44 50.5 °F 39.4 °F 30 in SO 3.6 mph 7.6 mph 65.2% 0 in
01:49 50.5 °F 39 °F 30 in SO 4 mph 8 mph 64.6% 0 in
01:54 50.4 °F 38.8 °F 30 in OSO 4.3 mph 7 mph 64.6% 0 in
01:59 50.4 °F 39 °F 30 in OSO 3.9 mph 6.2 mph 64.9% 0 in
02:04 50.2 °F 39.2 °F 30 in SO 3.6 mph 6 mph 65.5% 0 in
02:09 50.2 °F 39.4 °F 30 in SSO 3.6 mph 6.9 mph 66% 0 in
02:14 50.2 °F 38.8 °F 30 in Sur 3.6 mph 7 mph 65% 0 in
02:19 49.8 °F 38.5 °F 30 in Sur 4.5 mph 8.1 mph 64.7% 0 in
02:24 49.6 °F 38.1 °F 30 in Sur 5.2 mph 8 mph 64% 0 in
02:29 49.6 °F 37.9 °F 30 in Sur 4.7 mph 8.1 mph 63.6% 0 in
02:34 49.6 °F 37.6 °F 30 in Sur 4.3 mph 8 mph 63.1% 0 in
02:39 49.5 °F 37 °F 30 in Sur 4.5 mph 6.2 mph 62% 0 in
02:44 49.5 °F 36.9 °F 30 in Sur 4.7 mph 7.4 mph 61.7% 0 in
02:49 49.6 °F 36.7 °F 30 in Sur 4.5 mph 7 mph 61% 0 in
02:54 49.6 °F 36.7 °F 30 in Sur 4.3 mph 7.4 mph 60.9% 0 in
02:59 49.6 °F 36.7 °F 30 in SSE 4.5 mph 7 mph 60.9% 0 in
03:04 49.5 °F 37 °F 30 in SSE 4.7 mph 7 mph 62% 0 in
03:09 49.3 °F 37 °F 30 in Sur 4.5 mph 8.1 mph 62.3% 0 in
03:14 49.3 °F 36.5 °F 30 in SSO 4.3 mph 8.1 mph 61.5% 0 in
03:19 49.3 °F 36 °F 30 in SSO 4.8 mph 8.1 mph 59.9% 0 in
03:24 49.5 °F 35.6 °F 30 in SO 5.2 mph 7 mph 58.9% 0 in
03:29 49.5 °F 34.9 °F 30 in OSO 4.1 mph 6.9 mph 56.9% 0 in
03:34 49.6 °F 34.3 °F 30 in OSO 3.1 mph 7 mph 55.4% 0 in
03:39 49.8 °F 34 °F 30 in OSO 3.4 mph 6.9 mph 54.3% 0 in
03:44 50 °F 34 °F 30 in OSO 3.6 mph 7 mph 54% 0 in
03:49 50 °F 34 °F 30 in OSO 3.4 mph 6 mph 53.9% 0 in
03:54 50 °F 34 °F 30 in SO 3.1 mph 6.2 mph 53.8% 0 in
03:59 50 °F 33.4 °F 30 in OSO 3 mph 6 mph 53% 0 in
04:04 50.2 °F 33.8 °F 30 in SO 2.9 mph 6.9 mph 53.1% 0 in
04:09 50.2 °F 33.6 °F 30 in SO 3.5 mph 7.4 mph 53% 0 in
04:14 50.2 °F 33.6 °F 30 in OSO 4 mph 7 mph 53% 0 in
04:19 50 °F 33.4 °F 30 in OSO 4.4 mph 7 mph 53% 0 in
04:24 49.8 °F 33.4 °F 30 in OSO 4.7 mph 6.9 mph 53% 0 in
04:29 49.6 °F 33.3 °F 30 in OSO 4.5 mph 8.5 mph 53% 0 in
04:34 49.6 °F 33.6 °F 30 in OSO 4.3 mph 9 mph 53.8% 0 in
04:39 49.5 °F 33.6 °F 30 in OSO 4.2 mph 7 mph 54% 0 in
04:44 49.5 °F 33.8 °F 30 in OSO 4 mph 6 mph 54.7% 0 in
04:49 49.3 °F 33.8 °F 30 in SO 3.5 mph 6 mph 55% 0 in
04:54 49.1 °F 33.6 °F 30 in SO 3.1 mph 6.9 mph 55% 0 in
04:59 48.9 °F 33.6 °F 30 in SO 3.4 mph 7 mph 55.3% 0 in
05:04 48.7 °F 34 °F 30 in SSE 3.6 mph 5.2 mph 56.4% 0 in
05:09 48.4 °F 34.2 °F 30 in Sur 3.4 mph 8.1 mph 57.7% 0 in
05:14 47.8 °F 34 °F 30 in Sur 3.1 mph 9.2 mph 58.8% 0 in
05:19 47.5 °F 34 °F 30 in Sur 4.7 mph 10.4 mph 59% 0 in
05:24 47.5 °F 34 °F 30 in Sur 6.2 mph 10.4 mph 59% 0 in
05:29 47.5 °F 33.4 °F 30 in Sur 6.2 mph 10 mph 58.2% 0 in
05:34 47.7 °F 33.3 °F 30 in Sur 6.2 mph 11.8 mph 57.4% 0 in
05:39 48.2 °F 33.3 °F 30 in Sur 6.6 mph 12 mph 56.3% 0 in
05:44 48.4 °F 33.3 °F 30 in SSO 6.9 mph 12.7 mph 55.9% 0 in
05:49 48.4 °F 33.3 °F 30 in Sur 6.4 mph 13 mph 55.6% 0 in
05:54 48.6 °F 33.1 °F 30 in SO 5.9 mph 8.5 mph 55% 0 in
05:59 48.9 °F 33.4 °F 30 in OSO 4.9 mph 9 mph 55% 0 in
06:04 48.7 °F 33.3 °F 30 in SO 4.3 mph 9.2 mph 54.8% 0 in
06:09 48.6 °F 33.3 °F 30 in SO 4.8 mph 9.2 mph 55.1% 0 in
06:14 48.2 °F 33.3 °F 30 in SO 5.2 mph 9 mph 56% 0 in
06:19 48 °F 33.1 °F 30 in SO 5.2 mph 9 mph 56.2% 0 in
06:24 47.8 °F 33.3 °F 30 in SO 5.2 mph 7.6 mph 57% 0 in
06:29 47.8 °F 33.3 °F 30 in SSO 4.9 mph 8.1 mph 57% 0 in
06:34 47.7 °F 33.3 °F 30 in SSO 4.7 mph 8.1 mph 57.6% 0 in
06:39 47.3 °F 33.3 °F 30 in SSO 5 mph 9.2 mph 58% 0 in
06:44 47.1 °F 33.4 °F 30 in SSO 5.2 mph 9.2 mph 58.7% 0 in
06:49 47.1 °F 33.4 °F 30 in SSO 5.2 mph 8.1 mph 59% 0 in
06:54 47.1 °F 33.4 °F 30 in SSO 5.2 mph 7 mph 59% 0 in
06:59 47.1 °F 33.6 °F 30 in SO 4.5 mph 7 mph 59% 0 in
07:04 47.3 °F 33.6 °F 30 in SO 4 mph 6 mph 58.6% 0 in
07:09 47.3 °F 33.8 °F 30 in SO 3.5 mph 5.9 mph 59% 0 in
07:14 47.3 °F 33.6 °F 30 in SO 3.1 mph 7.4 mph 59% 0 in
07:19 47.3 °F 33.4 °F 30 in SO 3.6 mph 8.1 mph 58.6% 0 in
07:24 47.1 °F 33.4 °F 30 in SO 4 mph 8 mph 58.4% 0 in
07:29 47.1 °F 33.3 °F 30 in SO 4 mph 7 mph 58.3% 0 in
07:34 47.1 °F 33.4 °F 30 in Sur 4 mph 7.6 mph 59% 0 in
07:39 46.9 °F 33.4 °F 30 in Sur 3.5 mph 8.1 mph 59% 0 in
07:44 46.9 °F 33.3 °F 30 in Sur 3.1 mph 7 mph 59% 0 in
07:49 46.8 °F 33.3 °F 30 in Sur 3.7 mph 7 mph 59% 0 in
07:54 46.6 °F 33.1 °F 30 in Sur 4.3 mph 7 mph 59.3% 0 in
07:59 46.4 °F 33.3 °F 30 in Sur 3.9 mph 6 mph 60% 0 in
08:04 46.2 °F 33.1 °F 30 in Sur 3.6 mph 6.9 mph 60% 0 in
08:09 46.2 °F 33.1 °F 30 in SSO 4 mph 8.1 mph 60% 0 in
08:14 46.2 °F 33.1 °F 30 in SSO 4.3 mph 8.7 mph 60% 0 in
08:19 46.2 °F 33.1 °F 30 in Sur 4.8 mph 9 mph 60% 0 in
08:24 46.2 °F 33.1 °F 30 in SSO 5.2 mph 8 mph 60% 0 in
08:29 46.2 °F 33.1 °F 30 in SSO 4.5 mph 6 mph 60% 0 in
08:34 46.2 °F 33.3 °F 30 in SSE 4 mph 6 mph 60.5% 0 in
08:39 46 °F 33.3 °F 30 in Sur 3.2 mph 5.8 mph 61% 0 in
08:44 46 °F 33.3 °F 30 in Sur 2.4 mph 6 mph 61% 0 in
08:49 45.9 °F 33.3 °F 30 in Sur 2.7 mph 5 mph 61% 0 in
08:54 46 °F 33.3 °F 30 in Sur 2.9 mph 5 mph 61% 0 in
08:59 46.2 °F 33.4 °F 30 in Sur 3 mph 6.2 mph 61% 0 in
09:04 46 °F 33.4 °F 30 in SSO 3.1 mph 6.9 mph 61% 0 in
09:09 46.2 °F 33.4 °F 30 in SSO 3.7 mph 9.2 mph 61% 0 in
09:14 46.2 °F 33.4 °F 30 in SO 4.3 mph 10.7 mph 60.6% 0 in
09:19 46.6 °F 33.4 °F 30 in SO 5.3 mph 12.7 mph 60% 0 in
09:24 46.8 °F 33.4 °F 30 in SO 6.2 mph 13 mph 59.7% 0 in
09:29 46.9 °F 33.4 °F 30 in SO 6.6 mph 12.7 mph 59% 0 in
09:34 47.3 °F 33.4 °F 30 in SO 6.9 mph 13 mph 58.4% 0 in
09:39 47.5 °F 33.4 °F 30 in SSO 6.9 mph 12 mph 58% 0 in
09:44 47.7 °F 33.6 °F 30 in SO 7.4 mph 11.2 mph 58% 0 in
09:49 47.8 °F 33.3 °F 30 in OSO 7.1 mph 13.5 mph 57.1% 0 in
09:54 48 °F 33.4 °F 30 in OSO 6.9 mph 14 mph 57% 0 in
09:59 48.2 °F 33.4 °F 30 in OSO 7.2 mph 13 mph 56.4% 0 in
10:04 48.7 °F 33.6 °F 30 in OSO 7.4 mph 12 mph 56% 0 in
10:09 48.9 °F 33.6 °F 30 in OSO 6.8 mph 10.7 mph 55.1% 0 in
10:14 49.3 °F 33.8 °F 30 in SO 6.2 mph 11 mph 55% 0 in
10:19 49.6 °F 34 °F 30 in SSO 6 mph 11.2 mph 54.6% 0 in
10:24 50 °F 34 °F 30 in SO 5.9 mph 12 mph 53.8% 0 in
10:29 50.5 °F 34.2 °F 30 in Sur 5.3 mph 12 mph 53.6% 0 in
10:34 50.7 °F 34.2 °F 30 in SSE 4.7 mph 7.4 mph 53% 0 in
10:39 51.1 °F 34.3 °F 30 in Sur 4.5 mph 8.5 mph 52.6% 0 in
10:44 51.1 °F 34.2 °F 30 in SSO 4.3 mph 9.7 mph 52% 0 in
10:49 51.1 °F 34.2 °F 30 in Sur 5.3 mph 10 mph 52% 0 in
10:54 51.4 °F 34 °F 30 in Sur 6.2 mph 10.7 mph 51.2% 0 in
10:59 51.4 °F 34 °F 30 in SO 5.7 mph 11 mph 51% 0 in
11:04 51.6 °F 34.2 °F 30 in OSO 5.4 mph 9 mph 51% 0 in
11:09 51.8 °F 34 °F 30 in OSO 4.8 mph 8.1 mph 50.6% 0 in
11:14 52.2 °F 34 °F 30 in SO 4.3 mph 8.5 mph 50% 0 in
11:19 52.3 °F 34.2 °F 30 in SO 4.3 mph 9 mph 50% 0 in
11:24 52.7 °F 34.2 °F 30 in SO 4.3 mph 10 mph 49.1% 0 in
11:29 53.1 °F 34.2 °F 30 in OSO 5.2 mph 12.7 mph 48.6% 0 in
11:34 53.1 °F 34 °F 30 in OSO 5.9 mph 13 mph 48.2% 0 in
11:39 53.1 °F 34.2 °F 30 in OSO 6 mph 12 mph 48.6% 0 in
11:44 53.2 °F 34.3 °F 30 in SO 6.2 mph 9.2 mph 48.6% 0 in
11:49 53.4 °F 34 °F 30 in SO 5.4 mph 9.2 mph 47.7% 0 in
11:54 53.4 °F 34 °F 30 in SO 4.7 mph 10.4 mph 47.5% 0 in
11:59 54 °F 34.2 °F 30 in Sur 5.6 mph 11.5 mph 47% 0 in
12:04 54.1 °F 34 °F 30 in SSO 6.2 mph 12 mph 46.6% 0 in
12:09 54 °F 34.2 °F 30 in Sur 6.6 mph 11 mph 47% 0 in
12:14 54.1 °F 34 °F 30 in SO 6.9 mph 10 mph 46.3% 0 in
12:19 54.1 °F 33.8 °F 30 in SO 6 mph 9 mph 46% 0 in
12:24 54.3 °F 34 °F 30 in Sur 5.2 mph 9 mph 46.1% 0 in
12:29 54.9 °F 34 °F 30 in OSO 4.7 mph 9.2 mph 45.3% 0 in
12:34 55 °F 34 °F 30 in SO 4.3 mph 9.7 mph 45% 0 in
12:39 55.2 °F 34.2 °F 30 in SO 4.5 mph 10 mph 45% 0 in
12:44 55.2 °F 33.8 °F 30 in SSO 4.7 mph 10.4 mph 44.2% 0 in
12:49 55.6 °F 34 °F 30 in SSO 4.7 mph 11.5 mph 44% 0 in
12:54 55.6 °F 34.2 °F 30 in SSO 4.7 mph 12 mph 44.3% 0 in
12:59 55.9 °F 34.3 °F 30 in Sur 4.7 mph 9.7 mph 43.9% 0 in
13:04 56.1 °F 33.8 °F 30 in SSE 4.7 mph 10 mph 43% 0 in
13:09 56.1 °F 34 °F 30 in OSO 4.5 mph 8.1 mph 43% 0 in
13:14 56.7 °F 34.3 °F 30 in Sur 4.3 mph 8 mph 43% 0 in
13:19 56.8 °F 34.2 °F 30 in Sur 4.2 mph 7.4 mph 42.3% 0 in
13:24 56.8 °F 34 °F 30 in SE 4 mph 7 mph 42% 0 in
13:29 56.8 °F 34.2 °F 30 in ENE 3.5 mph 8.1 mph 42.2% 0 in
13:34 56.8 °F 34.3 °F 30 in ENE 3.1 mph 8 mph 42.6% 0 in
13:39 57 °F 34.5 °F 30 in NE 2.7 mph 6 mph 42.6% 0 in
13:44 57.6 °F 34.3 °F 30 in SE 2.4 mph 5.2 mph 41.5% 0 in
13:49 57.6 °F 34.2 °F 30 in Oeste 2.4 mph 5 mph 41.1% 0 in
13:54 57.7 °F 34.2 °F 30 in Oeste 2.4 mph 5 mph 41% 0 in
13:59 57.7 °F 34.3 °F 30 in Oeste 2.2 mph 5 mph 41% 0 in
14:04 57.9 °F 34 °F 30 in OSO 2 mph 5 mph 40.4% 0 in
14:09 58.1 °F 34 °F 30 in Oeste 2.5 mph 6.2 mph 40% 0 in
14:14 58.1 °F 33.8 °F 30 in North 2.9 mph 6 mph 40% 0 in
14:19 58.3 °F 34 °F 30 in ONO 3 mph 6.9 mph 40% 0 in
14:24 58.5 °F 34.2 °F 30 in NNO 3.1 mph 7 mph 40% 0 in
14:29 58.6 °F 34 °F 30 in Oeste 2.7 mph 5.9 mph 39.4% 0 in
14:34 58.6 °F 34 °F 30 in Sur 2.4 mph 6.4 mph 39.5% 0 in
14:39 58.8 °F 33.8 °F 29.9 in SSE 3 mph 6.9 mph 39% 0 in
14:44 58.8 °F 34 °F 29.9 in SSO 3.6 mph 7 mph 39% 0 in
14:49 59.2 °F 34 °F 29.9 in OSO 3 mph 5.9 mph 38.7% 0 in
14:54 59.2 °F 34 °F 29.9 in OSO 2.4 mph 6 mph 38.5% 0 in
14:59 59.4 °F 33.8 °F 29.9 in OSO 2.8 mph 6.9 mph 38.2% 0 in
15:04 59.5 °F 34 °F 29.9 in OSO 3.1 mph 7 mph 38% 0 in
15:09 59.5 °F 34 °F 29.9 in OSO 3.4 mph 7 mph 38% 0 in
15:14 59.7 °F 33.8 °F 29.9 in ONO 3.6 mph 5 mph 37.8% 0 in
15:19 59.9 °F 33.8 °F 29.9 in NO 2.9 mph 5 mph 37.4% 0 in
15:24 60.1 °F 33.6 °F 29.9 in ESE 2.4 mph 6.9 mph 37% 0 in
15:29 60.1 °F 34 °F 29.9 in ESE 2.7 mph 7 mph 37.3% 0 in
15:34 60.1 °F 33.8 °F 29.9 in SSE 2.9 mph 6.9 mph 37% 0 in
15:39 60.3 °F 33.8 °F 29.9 in Sur 3 mph 7 mph 37% 0 in
15:44 60.4 °F 34 °F 29.9 in SSO 3.1 mph 6 mph 37% 0 in
15:49 60.6 °F 34.2 °F 29.9 in SSO 2.5 mph 4 mph 36.9% 0 in
15:54 60.8 °F 33.6 °F 29.9 in SE 2 mph 3.6 mph 36% 0 in
15:59 60.8 °F 33.6 °F 29.9 in NNE 1.9 mph 4.7 mph 35.9% 0 in
16:04 60.6 °F 33.4 °F 29.9 in North 1.8 mph 5.4 mph 36% 0 in
16:09 60.4 °F 33.4 °F 29.9 in NO 2.5 mph 6 mph 36.1% 0 in
16:14 60.4 °F 34.2 °F 29.9 in NO 3.1 mph 5 mph 37% 0 in
16:19 61 °F 33.8 °F 29.9 in NNO 2.4 mph 5 mph 36.1% 0 in
16:24 61.2 °F 33.8 °F 29.9 in NE 1.8 mph 5 mph 35.8% 0 in
16:29 61.3 °F 33.6 °F 29.9 in NE 1.8 mph 5 mph 35.3% 0 in
16:34 61.5 °F 33.6 °F 29.9 in NNE 1.8 mph 4.7 mph 35% 0 in
16:39 61.5 °F 33.6 °F 29.9 in NNE 1.9 mph 5 mph 35% 0 in
16:44 61.3 °F 33.4 °F 29.9 in NNE 2 mph 4 mph 35% 0 in
16:49 61.3 °F 33.4 °F 29.9 in NNE 1.7 mph 2.4 mph 35% 0 in
16:54 61.3 °F 33.4 °F 29.9 in NNE 1.4 mph 2.4 mph 35% 0 in
16:59 61.3 °F 33.4 °F 29.9 in ENE 1.6 mph 5.2 mph 35% 0 in
17:04 61.3 °F 33.4 °F 29.9 in ENE 1.8 mph 5 mph 35% 0 in
17:09 61.2 °F 33.8 °F 29.9 in ESE 2.1 mph 9.7 mph 35.7% 0 in
17:14 60.8 °F 37.4 °F 29.9 in SE 2.4 mph 11.8 mph 41.9% 0 in
17:19 60.3 °F 38.5 °F 29.9 in SSE 4.2 mph 12 mph 44.5% 0 in
17:24 59.5 °F 38.8 °F 29.9 in SSE 6.2 mph 9.7 mph 46% 0 in
17:29 59.4 °F 39.2 °F 29.9 in SSE 6 mph 10.7 mph 47.4% 0 in
17:34 58.8 °F 39.4 °F 29.9 in SSE 5.9 mph 11.8 mph 48.5% 0 in
17:39 58.5 °F 39.7 °F 29.9 in SSE 6.7 mph 12.7 mph 49.5% 0 in
17:44 58.1 °F 39.9 °F 29.9 in Sur 7.4 mph 13 mph 50.6% 0 in
17:49 57.9 °F 40.1 °F 29.9 in SSE 7.5 mph 12 mph 51.3% 0 in
17:54 57.7 °F 40.1 °F 29.9 in Sur 7.6 mph 11 mph 52% 0 in
17:59 57.4 °F 40.3 °F 29.9 in Sur 6.6 mph 10.4 mph 52.8% 0 in
18:04 57 °F 40.1 °F 29.9 in Sur 5.9 mph 12.7 mph 53% 0 in
18:09 57 °F 40.3 °F 29.9 in Sur 6.5 mph 13 mph 53.7% 0 in
18:14 56.8 °F 40.3 °F 29.9 in Sur 6.9 mph 13 mph 54% 0 in
18:19 56.7 °F 40.6 °F 29.9 in SSE 7.1 mph 13 mph 55% 0 in
18:24 56.5 °F 40.5 °F 29.9 in Sur 7.4 mph 12 mph 55% 0 in
18:29 56.5 °F 41 °F 29.9 in Sur 7.1 mph 10.4 mph 55.9% 0 in
18:34 56.3 °F 40.6 °F 29.9 in SSE 6.9 mph 10.4 mph 56% 0 in
18:39 56.1 °F 40.8 °F 29.9 in SSE 6.5 mph 11.5 mph 56.5% 0 in
18:44 55.9 °F 41.2 °F 29.9 in Sur 6.2 mph 12.3 mph 57.3% 0 in
18:49 55.9 °F 41.4 °F 29.9 in Sur 6.3 mph 12 mph 58% 0 in
18:54 55.9 °F 41.7 °F 29.9 in Sur 6.4 mph 12 mph 58.8% 0 in
18:59 55.9 °F 42.1 °F 29.9 in Sur 6.4 mph 12 mph 59.6% 0 in
19:04 55.8 °F 42.4 °F 29.9 in Sur 6.4 mph 12 mph 60.8% 0 in
19:09 55.8 °F 42.8 °F 29.9 in SSE 6.6 mph 10.7 mph 61.8% 0 in
19:14 55.8 °F 43.5 °F 29.9 in Sur 6.9 mph 12.7 mph 63.3% 0 in
19:19 55.8 °F 43.9 °F 29.9 in Sur 7.1 mph 13 mph 64% 0 in
19:24 55.8 °F 44.1 °F 29.9 in Sur 7.4 mph 10 mph 65% 0 in
19:29 55.8 °F 44.2 °F 29.9 in SSE 6 mph 9 mph 65.1% 0 in
19:34 55.8 °F 44.6 °F 29.9 in SSE 4.7 mph 7 mph 66% 0 in
19:39 55.8 °F 44.6 °F 29.9 in SSE 4.5 mph 6.9 mph 66% 0 in
19:44 55.8 °F 44.6 °F 29.9 in Sur 4.3 mph 7.4 mph 66% 0 in
19:49 55.8 °F 44.6 °F 29.9 in Sur 4.5 mph 7.4 mph 66% 0 in
19:54 55.8 °F 44.6 °F 29.9 in Sur 4.7 mph 7 mph 66% 0 in
19:59 55.8 °F 44.6 °F 29.9 in SSO 4.3 mph 7 mph 66% 0 in
20:04 55.8 °F 44.8 °F 29.9 in SSE 4 mph 6.2 mph 66.4% 0 in
20:09 55.8 °F 45 °F 29.9 in Sur 3.8 mph 6 mph 67% 0 in
20:14 55.6 °F 44.8 °F 29.9 in Sur 3.6 mph 6.4 mph 67% 0 in
20:19 55.6 °F 44.8 °F 29.9 in Sur 3 mph 6 mph 67% 0 in
20:24 55.6 °F 44.8 °F 29.9 in Sur 2.4 mph 3 mph 67% 0 in
20:29 55.2 °F 44.4 °F 29.9 in Sur 1.1 mph 3.5 mph 67% 0 in
20:34 55 °F 44.4 °F 29.9 in Calm   3 mph 67% 0 in
20:39 54.9 °F 44.1 °F 29.9 in Sur 0.7 mph 3.6 mph 67% 0 in
20:44 54.3 °F 43.9 °F 29.9 in Sur 1.4 mph 4.6 mph 67.7% 0 in
20:49 54 °F 43.9 °F 29.9 in Sur 1.7 mph 5 mph 68.7% 0 in
20:54 53.6 °F 43.7 °F 29.9 in Sur 2 mph 5 mph 69.4% 0 in
20:59 53.2 °F 43.7 °F 29.9 in Sur 2 mph 4 mph 70% 0 in
21:04 53.1 °F 43.9 °F 29.9 in Sur 2 mph 5 mph 71% 0 in
21:09 53.1 °F 43.9 °F 29.9 in Sur 2 mph 5 mph 71% 0 in
21:14 52.9 °F 43.7 °F 29.9 in Sur 2 mph 5 mph 71% 0 in
21:19 52.9 °F 43.7 °F 29.9 in SSO 2 mph 4.6 mph 71% 0 in
21:24 52.9 °F 43.7 °F 29.9 in NO 2 mph 5 mph 71% 0 in
21:29 52.5 °F 43.5 °F 29.9 in NO 2.5 mph 5 mph 71.2% 0 in
21:34 52.5 °F 43.9 °F 29.9 in North 2.9 mph 5 mph 72% 0 in
21:39 52.5 °F 43.9 °F 29.9 in North 2.1 mph 5 mph 72% 0 in
21:44 52.5 °F 43.9 °F 29.9 in North 1.4 mph 3.5 mph 72% 0 in
21:49 52.5 °F 43.7 °F 29.9 in North 1.7 mph 3.5 mph 71.7% 0 in
21:54 52.5 °F 43.3 °F 29.9 in North 2 mph 3.6 mph 71% 0 in
21:59 52.3 °F 43.2 °F 29.9 in ONO 2 mph 4 mph 71% 0 in
22:04 52.3 °F 43.2 °F 29.9 in ONO 2 mph 4.6 mph 71% 0 in
22:09 52.2 °F 43.2 °F 29.9 in NO 2.2 mph 5.2 mph 71% 0 in
22:14 52.2 °F 43 °F 29.9 in NNO 2.4 mph 5 mph 71% 0 in
22:19 52 °F 43 °F 29.9 in NNO 2.4 mph 5 mph 71.4% 0 in
22:24 52 °F 43.2 °F 29.9 in NNO 2.4 mph 4.7 mph 71.9% 0 in
22:29 52.2 °F 43.3 °F 29.9 in NNO 2.4 mph 5 mph 72% 0 in
22:34 52.2 °F 43.3 °F 29.9 in North 2.4 mph 5 mph 72% 0 in
22:39 52.2 °F 43.3 °F 29.9 in North 2.2 mph 3.5 mph 72% 0 in
22:44 52.2 °F 43.3 °F 29.9 in North 2 mph 3.6 mph 72% 0 in
22:49 52.2 °F 43.3 °F 29.9 in North 1.9 mph 4 mph 72% 0 in
22:54 52.2 °F 43.3 °F 29.9 in NNO 1.8 mph 4.6 mph 72% 0 in
22:59 52.2 °F 43.3 °F 29.9 in NO 1.9 mph 5 mph 72% 0 in
23:04 52 °F 43.2 °F 29.9 in NO 2 mph 5 mph 72% 0 in
23:09 52 °F 43.3 °F 29.9 in NO 2.2 mph 5 mph 72.2% 0 in
23:14 52 °F 43.3 °F 29.9 in NO 2.4 mph 5 mph 72.2% 0 in
23:19 52 °F 43.2 °F 29.9 in NNO 2.7 mph 5 mph 72% 0 in
23:24 51.8 °F 43.3 °F 29.9 in NNO 2.9 mph 5 mph 72.8% 0 in
23:29 51.8 °F 43.3 °F 29.9 in NNO 2.3 mph 4 mph 73% 0 in
23:34 51.6 °F 43.3 °F 29.9 in NNO 1.8 mph 3 mph 73.1% 0 in
23:39 51.6 °F 43.5 °F 29.9 in NNO 0.9 mph 2 mph 74% 0 in
23:44 51.6 °F 43.5 °F 29.9 in Calm   2.9 mph 73.7% 0 in
23:49 51.6 °F 43.3 °F 29.9 in SE 0.7 mph 3.5 mph 73.2% 0 in
23:54 51.4 °F 43.5 °F 29.9 in ESE 1.4 mph 4 mph 74% 0 in
23:59 51.3 °F 43.3 °F 29.9 in ESE 1.7 mph 4.6 mph 74.2% 0 in
Murcia-Puente Tocinos, Espa?a
Compliments of Weather Underground - 3 mb

La estación de MeteoMurcia.com, publica sus datos en los siguientes proyectos:

Weather Underground PWS IMURCIAP2 Meteoclimatic www.awekas.at

W3Counter
Web Analytics